Decoded Metar for CWSA (SABLE ISLAND in NS, CANADA) (IATA:WSA) | Meteo·Mobile Aviation Weather
aviador You're here:

CWSA Decoded Metar

SABLE ISLAND in NS, CANADA
Report Time2018-10-20 05:00:00
UTC Time2018-10-20 06:01:14
Flight Rules vfr VFR
Wind190° at 13 kt
W.Rank190° ranks 11
Current wind is below 190° avg. (13.4)
Visibility9999 m
Phenomena:N/A
Clouds:Overcast 043 Hf
Expected CloudBase > 2,800 ft AGL from Temp-Dew spread
Ceiling4,300 ft
Temp09°C (ISA -6)
Dew Point02°C (62% RH)
AAT2.7°C
QNH1020 hPa
Density Alt-843 ft
Elevation13 ft
Report Wrong Elevation
Raw Report
CWSA 200500Z AUTO 19013KT 9SM OVC043 09/02 A3013 RMK SLP205=

Extra information for CWSA:More info

Metar Taf Metar & Taf Last 4 Metars F.Rules Stats Wind Profile Meteogram Temp Stats Airport Information Weather charts Add Link Nearby VenuesMetar ALERT Operation Metar Decoded Social comments